Sunnyside, Nevada
Current Conditions -  °F | °C
As of 1:53 AM on Sunday 25 Jan 2015 (Local Time) from KELY Reporting Station
Clear Clear  
Wind Chill: 13°   Ceiling: Unl
Heat Index: 22°   Visibility: 10mi
Dew Point: 20°   Wind: 7mph
Humidity: 92%   Direction: 180°S
Pressure: 30.44"   Gusts: NA
Location:  38.42°N, 115.02°W
Report Text: KELY 250953Z AUTO 18006KT 10SM CLR M06/M07 A3044 RMK AO2 SLP303 T10561067
Loading
Personal Weather Stations






























Interactive Weather Map New forecast layout! Learn more

10-Day Weather Forecast

Advertisements
Track Severe Weather on mobile